Terminal Aerodrome Forecast
Issued by NWS

Home | Current Version | Previous Version | Text Only | Print | Product List | Glossary On
Versions: 1 2 3 4 5 6 7 8 9 10 11 12 13
796
FTUS46 KPDT 100535
TAFRDM
TAF
KRDM 100535Z 1006/1106 17007KT P6SM SCT250
      TEMPO 1010/1014 1SM BR BKN002
     FM101400 17008KT 5SM BR SCT020 BKN250
     FM101800 20008KT P6SM SCT100 BKN250
     FM110400 17007KT P6SM SCT100 BKN250=

USA.gov is the U.S. government's official web portal to all federal, state and local government web resources and services.